sensor_id;sensor_type;location;lat;lon;timestamp;P1;durP1;ratioP1;P2;durP2;ratioP2
41653;SDS011;68687;52.030;7.110;2023-08-24T00:00:46;14.43;;;9.35;;
41653;SDS011;68687;52.030;7.110;2023-08-24T00:03:11;16.05;;;9.98;;
41653;SDS011;68687;52.030;7.110;2023-08-24T00:05:37;14.35;;;9.25;;
41653;SDS011;68687;52.030;7.110;2023-08-24T00:08:03;11.18;;;8.43;;
41653;SDS011;68687;52.030;7.110;2023-08-24T00:10:39;15.43;;;8.85;;
41653;SDS011;68687;52.030;7.110;2023-08-24T00:13:04;10.13;;;7.82;;
41653;SDS011;68687;52.030;7.110;2023-08-24T00:15:30;14.80;;;8.38;;
41653;SDS011;68687;52.030;7.110;2023-08-24T00:17:58;11.25;;;7.97;;
41653;SDS011;68687;52.030;7.110;2023-08-24T00:20:24;9.63;;;7.90;;
41653;SDS011;68687;52.030;7.110;2023-08-24T00:22:49;13.25;;;8.75;;
41653;SDS011;68687;52.030;7.110;2023-08-24T00:25:14;10.98;;;8.95;;
41653;SDS011;68687;52.030;7.110;2023-08-24T00:27:40;14.05;;;9.63;;
41653;SDS011;68687;52.030;7.110;2023-08-24T00:30:08;13.13;;;9.00;;
41653;SDS011;68687;52.030;7.110;2023-08-24T00:32:34;10.48;;;9.32;;
41653;SDS011;68687;52.030;7.110;2023-08-24T00:35:03;10.45;;;8.07;;
41653;SDS011;68687;52.030;7.110;2023-08-24T00:37:30;11.75;;;8.75;;
41653;SDS011;68687;52.030;7.110;2023-08-24T00:39:56;12.13;;;9.20;;
41653;SDS011;68687;52.030;7.110;2023-08-24T00:42:22;11.43;;;9.05;;
41653;SDS011;68687;52.030;7.110;2023-08-24T00:44:48;13.10;;;9.00;;
41653;SDS011;68687;52.030;7.110;2023-08-24T00:47:13;13.95;;;8.88;;
41653;SDS011;68687;52.030;7.110;2023-08-24T00:49:42;10.80;;;9.10;;
41653;SDS011;68687;52.030;7.110;2023-08-24T00:52:10;9.90;;;8.77;;
41653;SDS011;68687;52.030;7.110;2023-08-24T00:54:39;16.52;;;11.00;;
41653;SDS011;68687;52.030;7.110;2023-08-24T00:57:06;16.48;;;9.50;;
41653;SDS011;68687;52.030;7.110;2023-08-24T00:59:32;16.85;;;9.98;;
41653;SDS011;68687;52.030;7.110;2023-08-24T01:01:59;13.23;;;9.88;;
41653;SDS011;68687;52.030;7.110;2023-08-24T01:04:24;15.60;;;10.25;;
41653;SDS011;68687;52.030;7.110;2023-08-24T01:06:53;11.77;;;8.82;;
41653;SDS011;68687;52.030;7.110;2023-08-24T01:09:19;11.40;;;9.63;;
41653;SDS011;68687;52.030;7.110;2023-08-24T01:12:00;17.83;;;10.27;;
41653;SDS011;68687;52.030;7.110;2023-08-24T01:17:21;12.27;;;8.77;;
41653;SDS011;68687;52.030;7.110;2023-08-24T01:19:48;13.98;;;8.95;;
41653;SDS011;68687;52.030;7.110;2023-08-24T01:27:44;13.90;;;8.30;;
41653;SDS011;68687;52.030;7.110;2023-08-24T01:30:12;10.85;;;8.30;;
41653;SDS011;68687;52.030;7.110;2023-08-24T01:32:37;17.17;;;8.85;;
41653;SDS011;68687;52.030;7.110;2023-08-24T01:35:04;11.00;;;8.43;;
41653;SDS011;68687;52.030;7.110;2023-08-24T01:37:31;12.05;;;8.82;;
41653;SDS011;68687;52.030;7.110;2023-08-24T01:42:35;13.40;;;8.18;;
41653;SDS011;68687;52.030;7.110;2023-08-24T01:45:06;15.80;;;8.25;;
41653;SDS011;68687;52.030;7.110;2023-08-24T01:47:35;9.95;;;8.35;;
41653;SDS011;68687;52.030;7.110;2023-08-24T01:50:02;9.05;;;7.65;;
41653;SDS011;68687;52.030;7.110;2023-08-24T01:52:28;12.18;;;7.78;;
41653;SDS011;68687;52.030;7.110;2023-08-24T01:54:57;12.57;;;8.00;;
41653;SDS011;68687;52.030;7.110;2023-08-24T01:57:23;9.88;;;7.47;;
41653;SDS011;68687;52.030;7.110;2023-08-24T01:59:48;13.60;;;8.50;;
41653;SDS011;68687;52.030;7.110;2023-08-24T02:02:13;11.07;;;7.53;;
41653;SDS011;68687;52.030;7.110;2023-08-24T02:04:39;11.10;;;7.88;;
41653;SDS011;68687;52.030;7.110;2023-08-24T02:07:04;15.43;;;8.20;;
41653;SDS011;68687;52.030;7.110;2023-08-24T02:09:29;10.65;;;7.28;;
41653;SDS011;68687;52.030;7.110;2023-08-24T02:11:55;10.57;;;7.53;;
41653;SDS011;68687;52.030;7.110;2023-08-24T02:14:24;10.68;;;7.47;;
41653;SDS011;68687;52.030;7.110;2023-08-24T02:16:49;13.80;;;8.38;;
41653;SDS011;68687;52.030;7.110;2023-08-24T02:19:15;12.35;;;7.22;;
41653;SDS011;68687;52.030;7.110;2023-08-24T02:21:46;12.18;;;8.27;;
41653;SDS011;68687;52.030;7.110;2023-08-24T02:24:11;14.68;;;7.85;;
41653;SDS011;68687;52.030;7.110;2023-08-24T02:26:36;11.27;;;8.10;;
41653;SDS011;68687;52.030;7.110;2023-08-24T02:29:02;10.38;;;7.53;;
41653;SDS011;68687;52.030;7.110;2023-08-24T02:31:27;14.43;;;8.52;;
41653;SDS011;68687;52.030;7.110;2023-08-24T02:33:52;11.57;;;8.27;;
41653;SDS011;68687;52.030;7.110;2023-08-24T02:36:18;10.98;;;8.20;;
41653;SDS011;68687;52.030;7.110;2023-08-24T02:38:43;8.98;;;7.43;;
41653;SDS011;68687;52.030;7.110;2023-08-24T02:41:08;12.52;;;8.02;;
41653;SDS011;68687;52.030;7.110;2023-08-24T02:43:35;18.80;;;9.00;;
41653;SDS011;68687;52.030;7.110;2023-08-24T02:46:04;12.25;;;8.20;;
41653;SDS011;68687;52.030;7.110;2023-08-24T02:48:31;15.18;;;9.07;;
41653;SDS011;68687;52.030;7.110;2023-08-24T02:51:04;13.77;;;9.00;;
41653;SDS011;68687;52.030;7.110;2023-08-24T02:53:32;12.00;;;8.80;;
41653;SDS011;68687;52.030;7.110;2023-08-24T02:55:58;11.90;;;8.98;;
41653;SDS011;68687;52.030;7.110;2023-08-24T02:58:24;12.18;;;9.82;;
41653;SDS011;68687;52.030;7.110;2023-08-24T03:00:49;12.48;;;8.95;;
41653;SDS011;68687;52.030;7.110;2023-08-24T03:03:14;12.50;;;9.73;;
41653;SDS011;68687;52.030;7.110;2023-08-24T03:05:40;11.38;;;8.73;;
41653;SDS011;68687;52.030;7.110;2023-08-24T03:08:09;12.38;;;10.65;;
41653;SDS011;68687;52.030;7.110;2023-08-24T03:10:34;13.48;;;9.15;;
41653;SDS011;68687;52.030;7.110;2023-08-24T03:13:00;13.73;;;8.88;;
41653;SDS011;68687;52.030;7.110;2023-08-24T03:15:25;12.85;;;9.38;;
41653;SDS011;68687;52.030;7.110;2023-08-24T03:17:51;13.32;;;9.50;;
41653;SDS011;68687;52.030;7.110;2023-08-24T03:20:17;16.60;;;11.23;;
41653;SDS011;68687;52.030;7.110;2023-08-24T03:22:43;25.10;;;10.88;;
41653;SDS011;68687;52.030;7.110;2023-08-24T03:25:08;14.95;;;10.02;;
41653;SDS011;68687;52.030;7.110;2023-08-24T03:27:34;16.15;;;9.88;;
41653;SDS011;68687;52.030;7.110;2023-08-24T03:30:09;13.68;;;9.68;;
41653;SDS011;68687;52.030;7.110;2023-08-24T03:32:35;13.18;;;9.32;;
41653;SDS011;68687;52.030;7.110;2023-08-24T03:35:00;14.95;;;10.43;;
41653;SDS011;68687;52.030;7.110;2023-08-24T03:37:27;13.65;;;9.05;;
41653;SDS011;68687;52.030;7.110;2023-08-24T03:39:52;11.98;;;9.82;;
41653;SDS011;68687;52.030;7.110;2023-08-24T03:42:18;12.45;;;9.85;;
41653;SDS011;68687;52.030;7.110;2023-08-24T03:44:43;10.80;;;8.95;;
41653;SDS011;68687;52.030;7.110;2023-08-24T03:47:08;12.93;;;9.10;;
41653;SDS011;68687;52.030;7.110;2023-08-24T03:49:34;16.60;;;11.05;;
41653;SDS011;68687;52.030;7.110;2023-08-24T03:51:59;14.18;;;9.63;;
41653;SDS011;68687;52.030;7.110;2023-08-24T03:54:24;15.00;;;9.50;;
41653;SDS011;68687;52.030;7.110;2023-08-24T03:56:49;16.73;;;9.18;;
41653;SDS011;68687;52.030;7.110;2023-08-24T03:59:15;10.85;;;9.60;;
41653;SDS011;68687;52.030;7.110;2023-08-24T04:01:40;13.82;;;10.63;;
41653;SDS011;68687;52.030;7.110;2023-08-24T04:04:05;13.68;;;10.77;;
41653;SDS011;68687;52.030;7.110;2023-08-24T04:06:30;14.05;;;11.38;;
41653;SDS011;68687;52.030;7.110;2023-08-24T04:08:56;13.95;;;10.93;;
41653;SDS011;68687;52.030;7.110;2023-08-24T04:11:21;14.80;;;11.52;;
41653;SDS011;68687;52.030;7.110;2023-08-24T04:13:49;14.43;;;11.23;;
41653;SDS011;68687;52.030;7.110;2023-08-24T04:16:14;18.20;;;12.32;;
41653;SDS011;68687;52.030;7.110;2023-08-24T04:18:40;16.35;;;12.48;;
41653;SDS011;68687;52.030;7.110;2023-08-24T04:21:05;19.45;;;12.45;;
41653;SDS011;68687;52.030;7.110;2023-08-24T04:23:34;21.10;;;13.80;;
41653;SDS011;68687;52.030;7.110;2023-08-24T04:25:59;18.02;;;13.18;;
41653;SDS011;68687;52.030;7.110;2023-08-24T04:28:24;20.63;;;14.30;;
41653;SDS011;68687;52.030;7.110;2023-08-24T04:30:56;24.13;;;13.80;;
41653;SDS011;68687;52.030;7.110;2023-08-24T04:33:22;20.33;;;13.23;;
41653;SDS011;68687;52.030;7.110;2023-08-24T04:35:48;22.23;;;15.52;;
41653;SDS011;68687;52.030;7.110;2023-08-24T04:38:14;26.67;;;15.65;;
41653;SDS011;68687;52.030;7.110;2023-08-24T04:40:53;17.92;;;14.07;;
41653;SDS011;68687;52.030;7.110;2023-08-24T04:43:22;23.02;;;15.55;;
41653;SDS011;68687;52.030;7.110;2023-08-24T04:45:49;26.55;;;17.70;;
41653;SDS011;68687;52.030;7.110;2023-08-24T04:48:19;25.05;;;17.33;;
41653;SDS011;68687;52.030;7.110;2023-08-24T04:50:46;23.83;;;17.48;;
41653;SDS011;68687;52.030;7.110;2023-08-24T04:53:18;25.80;;;16.83;;
41653;SDS011;68687;52.030;7.110;2023-08-24T04:55:44;26.42;;;16.55;;
41653;SDS011;68687;52.030;7.110;2023-08-24T04:58:11;22.77;;;16.23;;
41653;SDS011;68687;52.030;7.110;2023-08-24T05:00:38;23.60;;;16.67;;
41653;SDS011;68687;52.030;7.110;2023-08-24T05:03:06;23.45;;;16.52;;
41653;SDS011;68687;52.030;7.110;2023-08-24T05:05:33;27.67;;;16.40;;
41653;SDS011;68687;52.030;7.110;2023-08-24T05:07:59;20.20;;;15.45;;
41653;SDS011;68687;52.030;7.110;2023-08-24T05:10:25;26.27;;;17.60;;
41653;SDS011;68687;52.030;7.110;2023-08-24T05:12:51;25.58;;;18.75;;
41653;SDS011;68687;52.030;7.110;2023-08-24T05:15:17;25.15;;;16.08;;
41653;SDS011;68687;52.030;7.110;2023-08-24T05:17:42;27.05;;;17.77;;
41653;SDS011;68687;52.030;7.110;2023-08-24T05:20:07;33.67;;;18.95;;
41653;SDS011;68687;52.030;7.110;2023-08-24T05:22:35;25.35;;;17.58;;
41653;SDS011;68687;52.030;7.110;2023-08-24T05:25:03;26.20;;;16.73;;
41653;SDS011;68687;52.030;7.110;2023-08-24T05:27:30;24.00;;;17.30;;
41653;SDS011;68687;52.030;7.110;2023-08-24T05:29:55;21.90;;;15.23;;
41653;SDS011;68687;52.030;7.110;2023-08-24T05:32:21;26.95;;;17.33;;
41653;SDS011;68687;52.030;7.110;2023-08-24T05:34:46;23.48;;;17.65;;
41653;SDS011;68687;52.030;7.110;2023-08-24T05:37:11;27.50;;;18.33;;
41653;SDS011;68687;52.030;7.110;2023-08-24T05:39:37;25.63;;;18.25;;
41653;SDS011;68687;52.030;7.110;2023-08-24T05:42:03;22.58;;;17.80;;
41653;SDS011;68687;52.030;7.110;2023-08-24T05:44:32;27.40;;;19.30;;
41653;SDS011;68687;52.030;7.110;2023-08-24T05:46:57;24.48;;;17.58;;
41653;SDS011;68687;52.030;7.110;2023-08-24T05:49:25;26.75;;;16.38;;
41653;SDS011;68687;52.030;7.110;2023-08-24T05:51:51;26.33;;;17.52;;
41653;SDS011;68687;52.030;7.110;2023-08-24T05:54:17;27.27;;;18.20;;
41653;SDS011;68687;52.030;7.110;2023-08-24T05:56:43;23.83;;;18.75;;
41653;SDS011;68687;52.030;7.110;2023-08-24T05:59:09;24.13;;;15.85;;
41653;SDS011;68687;52.030;7.110;2023-08-24T06:01:37;19.52;;;15.52;;
41653;SDS011;68687;52.030;7.110;2023-08-24T06:04:06;23.15;;;16.80;;
41653;SDS011;68687;52.030;7.110;2023-08-24T06:06:32;26.55;;;17.83;;
41653;SDS011;68687;52.030;7.110;2023-08-24T06:08:57;21.08;;;16.63;;
41653;SDS011;68687;52.030;7.110;2023-08-24T06:11:23;21.88;;;16.15;;
41653;SDS011;68687;52.030;7.110;2023-08-24T06:13:48;21.15;;;15.48;;
41653;SDS011;68687;52.030;7.110;2023-08-24T06:16:14;20.92;;;17.48;;
41653;SDS011;68687;52.030;7.110;2023-08-24T06:18:39;24.73;;;16.85;;
41653;SDS011;68687;52.030;7.110;2023-08-24T06:21:05;20.87;;;15.80;;
41653;SDS011;68687;52.030;7.110;2023-08-24T06:23:33;23.83;;;16.50;;
41653;SDS011;68687;52.030;7.110;2023-08-24T06:25:58;24.70;;;18.08;;
41653;SDS011;68687;52.030;7.110;2023-08-24T06:28:24;23.83;;;18.63;;
41653;SDS011;68687;52.030;7.110;2023-08-24T06:30:49;24.25;;;18.52;;
41653;SDS011;68687;52.030;7.110;2023-08-24T06:33:16;19.35;;;16.52;;
41653;SDS011;68687;52.030;7.110;2023-08-24T06:35:42;22.52;;;17.17;;
41653;SDS011;68687;52.030;7.110;2023-08-24T06:38:07;22.77;;;17.38;;
41653;SDS011;68687;52.030;7.110;2023-08-24T06:40:32;26.15;;;17.98;;
41653;SDS011;68687;52.030;7.110;2023-08-24T06:42:58;26.50;;;16.10;;
41653;SDS011;68687;52.030;7.110;2023-08-24T06:45:26;18.05;;;15.65;;
41653;SDS011;68687;52.030;7.110;2023-08-24T06:47:51;21.98;;;15.85;;
41653;SDS011;68687;52.030;7.110;2023-08-24T06:50:17;23.17;;;17.02;;
41653;SDS011;68687;52.030;7.110;2023-08-24T06:52:44;20.75;;;16.48;;
41653;SDS011;68687;52.030;7.110;2023-08-24T06:55:09;17.42;;;15.07;;
41653;SDS011;68687;52.030;7.110;2023-08-24T06:57:35;19.33;;;15.27;;
41653;SDS011;68687;52.030;7.110;2023-08-24T07:00:00;22.60;;;16.02;;
41653;SDS011;68687;52.030;7.110;2023-08-24T07:02:26;21.40;;;16.00;;
41653;SDS011;68687;52.030;7.110;2023-08-24T07:04:51;21.50;;;16.13;;
41653;SDS011;68687;52.030;7.110;2023-08-24T07:07:16;20.73;;;15.53;;
41653;SDS011;68687;52.030;7.110;2023-08-24T07:09:42;20.55;;;17.00;;
41653;SDS011;68687;52.030;7.110;2023-08-24T07:12:07;19.50;;;14.35;;
41653;SDS011;68687;52.030;7.110;2023-08-24T07:14:35;25.48;;;17.58;;
41653;SDS011;68687;52.030;7.110;2023-08-24T07:17:06;17.63;;;15.68;;
41653;SDS011;68687;52.030;7.110;2023-08-24T07:19:31;22.38;;;16.55;;
41653;SDS011;68687;52.030;7.110;2023-08-24T07:21:56;24.75;;;17.65;;
41653;SDS011;68687;52.030;7.110;2023-08-24T07:24:22;21.63;;;17.40;;
41653;SDS011;68687;52.030;7.110;2023-08-24T07:26:51;19.98;;;15.88;;
41653;SDS011;68687;52.030;7.110;2023-08-24T07:29:16;25.20;;;17.25;;
41653;SDS011;68687;52.030;7.110;2023-08-24T07:31:41;18.07;;;15.73;;
41653;SDS011;68687;52.030;7.110;2023-08-24T07:34:10;19.80;;;16.92;;
41653;SDS011;68687;52.030;7.110;2023-08-24T07:36:35;22.73;;;17.02;;
41653;SDS011;68687;52.030;7.110;2023-08-24T07:39:04;22.80;;;16.75;;
41653;SDS011;68687;52.030;7.110;2023-08-24T07:41:35;20.88;;;17.10;;
41653;SDS011;68687;52.030;7.110;2023-08-24T07:44:06;19.23;;;15.45;;
41653;SDS011;68687;52.030;7.110;2023-08-24T07:46:32;17.58;;;14.98;;
41653;SDS011;68687;52.030;7.110;2023-08-24T07:48:57;19.10;;;15.27;;
41653;SDS011;68687;52.030;7.110;2023-08-24T07:51:23;20.47;;;15.63;;
41653;SDS011;68687;52.030;7.110;2023-08-24T07:53:48;21.15;;;16.08;;
41653;SDS011;68687;52.030;7.110;2023-08-24T07:56:15;19.80;;;15.05;;
41653;SDS011;68687;52.030;7.110;2023-08-24T07:58:41;22.17;;;13.77;;
41653;SDS011;68687;52.030;7.110;2023-08-24T08:01:09;16.17;;;14.40;;
41653;SDS011;68687;52.030;7.110;2023-08-24T08:03:34;15.32;;;12.32;;
41653;SDS011;68687;52.030;7.110;2023-08-24T08:06:00;24.25;;;15.23;;
41653;SDS011;68687;52.030;7.110;2023-08-24T08:08:26;19.20;;;14.63;;
41653;SDS011;68687;52.030;7.110;2023-08-24T08:10:58;16.92;;;12.65;;
41653;SDS011;68687;52.030;7.110;2023-08-24T08:13:27;17.95;;;13.98;;
41653;SDS011;68687;52.030;7.110;2023-08-24T08:15:54;17.77;;;13.45;;
41653;SDS011;68687;52.030;7.110;2023-08-24T08:18:25;14.70;;;13.25;;
41653;SDS011;68687;52.030;7.110;2023-08-24T08:20:50;17.67;;;14.43;;
41653;SDS011;68687;52.030;7.110;2023-08-24T08:23:20;16.13;;;13.82;;
41653;SDS011;68687;52.030;7.110;2023-08-24T08:25:45;16.25;;;12.80;;
41653;SDS011;68687;52.030;7.110;2023-08-24T08:28:11;14.88;;;13.32;;
41653;SDS011;68687;52.030;7.110;2023-08-24T08:30:36;13.82;;;12.13;;
41653;SDS011;68687;52.030;7.110;2023-08-24T08:33:01;16.47;;;11.67;;
41653;SDS011;68687;52.030;7.110;2023-08-24T08:35:27;15.32;;;11.30;;
41653;SDS011;68687;52.030;7.110;2023-08-24T08:37:52;14.73;;;12.47;;
41653;SDS011;68687;52.030;7.110;2023-08-24T08:40:18;13.30;;;11.85;;
41653;SDS011;68687;52.030;7.110;2023-08-24T08:42:44;19.67;;;12.40;;
41653;SDS011;68687;52.030;7.110;2023-08-24T08:45:15;13.73;;;12.07;;
41653;SDS011;68687;52.030;7.110;2023-08-24T08:47:45;15.38;;;11.18;;
41653;SDS011;68687;52.030;7.110;2023-08-24T08:50:10;12.57;;;11.15;;
41653;SDS011;68687;52.030;7.110;2023-08-24T08:52:35;14.65;;;12.13;;
41653;SDS011;68687;52.030;7.110;2023-08-24T08:55:01;14.68;;;10.55;;
41653;SDS011;68687;52.030;7.110;2023-08-24T08:57:31;15.05;;;11.40;;
41653;SDS011;68687;52.030;7.110;2023-08-24T08:59:57;13.68;;;9.68;;
41653;SDS011;68687;52.030;7.110;2023-08-24T09:02:22;9.20;;;8.30;;
41653;SDS011;68687;52.030;7.110;2023-08-24T09:04:48;10.98;;;7.93;;
41653;SDS011;68687;52.030;7.110;2023-08-24T09:07:18;11.60;;;8.02;;
41653;SDS011;68687;52.030;7.110;2023-08-24T09:09:45;13.05;;;7.97;;
41653;SDS011;68687;52.030;7.110;2023-08-24T09:12:11;9.27;;;7.68;;
41653;SDS011;68687;52.030;7.110;2023-08-24T09:14:36;12.37;;;7.37;;
41653;SDS011;68687;52.030;7.110;2023-08-24T09:17:04;12.77;;;8.95;;
41653;SDS011;68687;52.030;7.110;2023-08-24T09:19:33;12.52;;;8.80;;
41653;SDS011;68687;52.030;7.110;2023-08-24T09:22:00;12.57;;;8.40;;
41653;SDS011;68687;52.030;7.110;2023-08-24T09:24:39;13.93;;;8.95;;
41653;SDS011;68687;52.030;7.110;2023-08-24T09:27:14;11.73;;;9.05;;
41653;SDS011;68687;52.030;7.110;2023-08-24T09:29:41;12.00;;;7.60;;
41653;SDS011;68687;52.030;7.110;2023-08-24T09:32:10;11.68;;;8.52;;
41653;SDS011;68687;52.030;7.110;2023-08-24T09:34:36;16.77;;;8.45;;
41653;SDS011;68687;52.030;7.110;2023-08-24T09:37:14;8.98;;;8.07;;
41653;SDS011;68687;52.030;7.110;2023-08-24T09:39:41;11.35;;;8.63;;
41653;SDS011;68687;52.030;7.110;2023-08-24T09:42:06;12.52;;;8.70;;
41653;SDS011;68687;52.030;7.110;2023-08-24T09:44:38;11.70;;;7.57;;
41653;SDS011;68687;52.030;7.110;2023-08-24T09:47:14;10.50;;;7.10;;
41653;SDS011;68687;52.030;7.110;2023-08-24T09:49:43;17.17;;;6.00;;
41653;SDS011;68687;52.030;7.110;2023-08-24T09:52:12;8.85;;;6.00;;
41653;SDS011;68687;52.030;7.110;2023-08-24T09:54:38;8.75;;;6.90;;
41653;SDS011;68687;52.030;7.110;2023-08-24T09:57:07;11.90;;;7.40;;
41653;SDS011;68687;52.030;7.110;2023-08-24T09:59:34;7.72;;;6.55;;
41653;SDS011;68687;52.030;7.110;2023-08-24T10:02:00;10.43;;;6.18;;
41653;SDS011;68687;52.030;7.110;2023-08-24T10:04:35;9.73;;;6.20;;
41653;SDS011;68687;52.030;7.110;2023-08-24T10:07:05;7.60;;;5.95;;
41653;SDS011;68687;52.030;7.110;2023-08-24T10:09:39;7.78;;;5.70;;
41653;SDS011;68687;52.030;7.110;2023-08-24T10:12:12;9.95;;;7.15;;
41653;SDS011;68687;52.030;7.110;2023-08-24T10:14:41;14.57;;;6.82;;
41653;SDS011;68687;52.030;7.110;2023-08-24T10:17:13;11.52;;;6.65;;
41653;SDS011;68687;52.030;7.110;2023-08-24T10:19:39;9.20;;;6.40;;
41653;SDS011;68687;52.030;7.110;2023-08-24T10:22:05;7.63;;;6.20;;
41653;SDS011;68687;52.030;7.110;2023-08-24T10:24:32;9.10;;;6.10;;
41653;SDS011;68687;52.030;7.110;2023-08-24T10:26:58;11.00;;;6.78;;
41653;SDS011;68687;52.030;7.110;2023-08-24T10:29:25;13.00;;;6.50;;
41653;SDS011;68687;52.030;7.110;2023-08-24T10:31:50;8.45;;;6.45;;
41653;SDS011;68687;52.030;7.110;2023-08-24T10:34:16;13.30;;;6.57;;
41653;SDS011;68687;52.030;7.110;2023-08-24T10:36:42;11.35;;;5.88;;
41653;SDS011;68687;52.030;7.110;2023-08-24T10:39:07;11.15;;;5.63;;
41653;SDS011;68687;52.030;7.110;2023-08-24T10:41:45;9.05;;;5.65;;
41653;SDS011;68687;52.030;7.110;2023-08-24T10:44:19;10.02;;;5.70;;
41653;SDS011;68687;52.030;7.110;2023-08-24T10:49:31;10.25;;;6.20;;
41653;SDS011;68687;52.030;7.110;2023-08-24T10:51:57;8.65;;;5.35;;
41653;SDS011;68687;52.030;7.110;2023-08-24T10:54:31;9.48;;;5.47;;
41653;SDS011;68687;52.030;7.110;2023-08-24T10:56:57;10.13;;;5.20;;
41653;SDS011;68687;52.030;7.110;2023-08-24T10:59:23;7.40;;;5.68;;
41653;SDS011;68687;52.030;7.110;2023-08-24T11:04:17;8.20;;;5.80;;
41653;SDS011;68687;52.030;7.110;2023-08-24T11:06:55;7.63;;;5.50;;
41653;SDS011;68687;52.030;7.110;2023-08-24T11:09:23;6.43;;;5.57;;
41653;SDS011;68687;52.030;7.110;2023-08-24T11:11:59;6.95;;;5.53;;
41653;SDS011;68687;52.030;7.110;2023-08-24T11:14:28;8.65;;;5.60;;
41653;SDS011;68687;52.030;7.110;2023-08-24T11:17:18;10.43;;;6.70;;
41653;SDS011;68687;52.030;7.110;2023-08-24T11:19:47;11.05;;;6.00;;
41653;SDS011;68687;52.030;7.110;2023-08-24T11:22:17;11.05;;;6.85;;
41653;SDS011;68687;52.030;7.110;2023-08-24T11:24:43;13.20;;;7.07;;
41653;SDS011;68687;52.030;7.110;2023-08-24T11:27:09;9.35;;;6.05;;
41653;SDS011;68687;52.030;7.110;2023-08-24T11:29:35;7.10;;;5.65;;
41653;SDS011;68687;52.030;7.110;2023-08-24T11:32:00;7.95;;;5.88;;
41653;SDS011;68687;52.030;7.110;2023-08-24T11:34:26;7.47;;;5.88;;
41653;SDS011;68687;52.030;7.110;2023-08-24T11:36:52;10.38;;;5.95;;
41653;SDS011;68687;52.030;7.110;2023-08-24T11:39:19;9.18;;;6.25;;
41653;SDS011;68687;52.030;7.110;2023-08-24T11:44:24;11.98;;;5.72;;
41653;SDS011;68687;52.030;7.110;2023-08-24T11:46:49;10.35;;;5.95;;
41653;SDS011;68687;52.030;7.110;2023-08-24T11:49:15;13.60;;;6.40;;
41653;SDS011;68687;52.030;7.110;2023-08-24T11:51:40;10.15;;;6.60;;
41653;SDS011;68687;52.030;7.110;2023-08-24T11:54:06;14.48;;;7.00;;
41653;SDS011;68687;52.030;7.110;2023-08-24T11:56:31;11.98;;;6.38;;
41653;SDS011;68687;52.030;7.110;2023-08-24T11:58:57;9.10;;;6.40;;
41653;SDS011;68687;52.030;7.110;2023-08-24T12:01:22;9.93;;;6.40;;
41653;SDS011;68687;52.030;7.110;2023-08-24T12:03:47;10.40;;;6.72;;
41653;SDS011;68687;52.030;7.110;2023-08-24T12:06:14;8.23;;;6.15;;
41653;SDS011;68687;52.030;7.110;2023-08-24T12:08:41;9.50;;;6.95;;
41653;SDS011;68687;52.030;7.110;2023-08-24T12:11:14;10.00;;;6.70;;
41653;SDS011;68687;52.030;7.110;2023-08-24T12:13:48;10.48;;;7.60;;
41653;SDS011;68687;52.030;7.110;2023-08-24T12:16:15;11.60;;;6.33;;
41653;SDS011;68687;52.030;7.110;2023-08-24T12:18:51;9.70;;;7.05;;
41653;SDS011;68687;52.030;7.110;2023-08-24T12:21:18;8.75;;;6.90;;
41653;SDS011;68687;52.030;7.110;2023-08-24T12:23:44;11.30;;;6.47;;
41653;SDS011;68687;52.030;7.110;2023-08-24T12:26:19;9.82;;;7.13;;
41653;SDS011;68687;52.030;7.110;2023-08-24T12:28:48;15.83;;;8.27;;
41653;SDS011;68687;52.030;7.110;2023-08-24T12:31:17;11.63;;;7.30;;
41653;SDS011;68687;52.030;7.110;2023-08-24T12:33:58;10.73;;;7.80;;
41653;SDS011;68687;52.030;7.110;2023-08-24T12:36:28;8.53;;;7.13;;
41653;SDS011;68687;52.030;7.110;2023-08-24T12:38:57;10.60;;;7.93;;
41653;SDS011;68687;52.030;7.110;2023-08-24T12:41:22;8.98;;;8.02;;
41653;SDS011;68687;52.030;7.110;2023-08-24T12:43:48;11.52;;;8.77;;
41653;SDS011;68687;52.030;7.110;2023-08-24T12:46:15;11.95;;;8.73;;
41653;SDS011;68687;52.030;7.110;2023-08-24T12:48:40;19.30;;;8.27;;
41653;SDS011;68687;52.030;7.110;2023-08-24T12:51:08;11.73;;;9.37;;
41653;SDS011;68687;52.030;7.110;2023-08-24T12:53:33;12.75;;;8.80;;
41653;SDS011;68687;52.030;7.110;2023-08-24T12:55:58;11.93;;;8.20;;
41653;SDS011;68687;52.030;7.110;2023-08-24T12:58:27;12.00;;;8.45;;
41653;SDS011;68687;52.030;7.110;2023-08-24T13:00:52;12.25;;;7.57;;
41653;SDS011;68687;52.030;7.110;2023-08-24T13:03:17;9.23;;;7.73;;
41653;SDS011;68687;52.030;7.110;2023-08-24T13:05:43;8.00;;;6.47;;
41653;SDS011;68687;52.030;7.110;2023-08-24T13:08:08;9.00;;;7.17;;
41653;SDS011;68687;52.030;7.110;2023-08-24T13:10:33;11.68;;;6.78;;
41653;SDS011;68687;52.030;7.110;2023-08-24T13:13:02;12.00;;;6.90;;
41653;SDS011;68687;52.030;7.110;2023-08-24T13:15:28;9.70;;;6.47;;
41653;SDS011;68687;52.030;7.110;2023-08-24T13:17:56;11.00;;;7.28;;
41653;SDS011;68687;52.030;7.110;2023-08-24T13:20:22;8.15;;;6.90;;
41653;SDS011;68687;52.030;7.110;2023-08-24T13:22:48;9.45;;;7.72;;
41653;SDS011;68687;52.030;7.110;2023-08-24T13:25:13;14.23;;;6.63;;
41653;SDS011;68687;52.030;7.110;2023-08-24T13:27:42;8.77;;;6.30;;
41653;SDS011;68687;52.030;7.110;2023-08-24T13:30:07;9.80;;;6.97;;
41653;SDS011;68687;52.030;7.110;2023-08-24T13:32:32;10.43;;;6.43;;
41653;SDS011;68687;52.030;7.110;2023-08-24T13:35:05;12.23;;;6.55;;
41653;SDS011;68687;52.030;7.110;2023-08-24T13:37:33;9.00;;;6.47;;
41653;SDS011;68687;52.030;7.110;2023-08-24T13:39:59;9.75;;;5.90;;
41653;SDS011;68687;52.030;7.110;2023-08-24T13:42:24;11.98;;;6.32;;
41653;SDS011;68687;52.030;7.110;2023-08-24T13:44:50;12.07;;;6.70;;
41653;SDS011;68687;52.030;7.110;2023-08-24T13:47:15;31.85;;;8.20;;
41653;SDS011;68687;52.030;7.110;2023-08-24T13:49:40;15.35;;;6.60;;
41653;SDS011;68687;52.030;7.110;2023-08-24T13:52:08;8.67;;;6.07;;
41653;SDS011;68687;52.030;7.110;2023-08-24T13:54:36;9.68;;;6.13;;
41653;SDS011;68687;52.030;7.110;2023-08-24T13:57:02;10.73;;;6.57;;
41653;SDS011;68687;52.030;7.110;2023-08-24T13:59:27;13.45;;;6.70;;
41653;SDS011;68687;52.030;7.110;2023-08-24T14:01:53;15.80;;;7.35;;
41653;SDS011;68687;52.030;7.110;2023-08-24T14:04:18;15.27;;;7.15;;
41653;SDS011;68687;52.030;7.110;2023-08-24T14:06:44;15.20;;;7.75;;
41653;SDS011;68687;52.030;7.110;2023-08-24T14:09:09;11.63;;;7.40;;
41653;SDS011;68687;52.030;7.110;2023-08-24T14:11:35;17.90;;;8.10;;
41653;SDS011;68687;52.030;7.110;2023-08-24T14:14:00;22.93;;;9.17;;
41653;SDS011;68687;52.030;7.110;2023-08-24T14:16:25;12.23;;;8.63;;
41653;SDS011;68687;52.030;7.110;2023-08-24T14:18:54;18.70;;;9.60;;
41653;SDS011;68687;52.030;7.110;2023-08-24T14:21:19;14.38;;;9.13;;
41653;SDS011;68687;52.030;7.110;2023-08-24T14:23:48;12.60;;;8.15;;
41653;SDS011;68687;52.030;7.110;2023-08-24T14:26:17;12.93;;;8.82;;
41653;SDS011;68687;52.030;7.110;2023-08-24T14:28:53;11.10;;;7.93;;
41653;SDS011;68687;52.030;7.110;2023-08-24T14:31:20;12.80;;;7.93;;
41653;SDS011;68687;52.030;7.110;2023-08-24T14:33:46;10.35;;;7.55;;
41653;SDS011;68687;52.030;7.110;2023-08-24T14:36:11;14.70;;;8.45;;
41653;SDS011;68687;52.030;7.110;2023-08-24T14:38:40;14.88;;;8.68;;
41653;SDS011;68687;52.030;7.110;2023-08-24T14:41:09;10.73;;;7.85;;
41653;SDS011;68687;52.030;7.110;2023-08-24T14:43:35;10.52;;;7.65;;
41653;SDS011;68687;52.030;7.110;2023-08-24T14:46:04;11.48;;;8.18;;
41653;SDS011;68687;52.030;7.110;2023-08-24T14:48:30;15.65;;;8.80;;